createdAt,value
2022-10-08T00:02:18.782Z,101835.25
2022-10-08T00:05:23.253Z,101860.09
2022-10-08T00:08:30.138Z,101859.63
2022-10-08T00:11:41.550Z,101848.22
2022-10-08T00:14:45.818Z,101843.94
2022-10-08T00:17:50.039Z,101834.22
2022-10-08T00:21:04.901Z,101860.84
2022-10-08T00:24:11.880Z,101877.66
2022-10-08T00:27:17.072Z,101863.56
2022-10-08T00:30:21.400Z,101871.47
2022-10-08T00:33:25.562Z,101869.63
2022-10-08T00:36:35.313Z,101861.72
2022-10-08T00:39:39.992Z,101866.91
2022-10-08T00:42:46.556Z,101844.66
2022-10-08T00:45:51.211Z,101847.66
2022-10-08T00:49:25.910Z,101858.41
2022-10-08T00:52:35.976Z,101854.03
2022-10-08T00:55:43.876Z,101853.78
2022-10-08T00:58:50.149Z,101850.59
2022-10-08T01:01:54.914Z,101855.38
2022-10-08T01:04:59.936Z,101840.47
2022-10-08T01:08:22.445Z,101843.63
2022-10-08T01:12:02.778Z,101847.13
2022-10-08T01:15:23.206Z,101824.53
2022-10-08T01:18:53.412Z,101839.31
2022-10-08T01:22:19.877Z,101850.78
2022-10-08T01:25:35.694Z,101843.41
2022-10-08T01:28:46.910Z,101831.91
2022-10-08T01:32:04.763Z,101834.47
2022-10-08T01:35:15.175Z,101813.91
2022-10-08T01:38:23.108Z,101826.22
2022-10-08T01:41:30.356Z,101818.00
2022-10-08T01:44:48.058Z,101833.28
2022-10-08T01:47:53.744Z,101821.94
2022-10-08T01:51:16.112Z,101822.91
2022-10-08T01:54:23.385Z,101813.31
2022-10-08T01:57:30.193Z,101799.69
2022-10-08T02:00:36.849Z,101784.09
2022-10-08T02:04:01.085Z,101795.66
2022-10-08T02:07:29.824Z,101801.53
2022-10-08T02:10:34.459Z,101789.38
2022-10-08T02:13:39.142Z,101795.38
2022-10-08T02:16:52.414Z,101794.75
2022-10-08T02:20:23.237Z,101790.22
2022-10-08T02:23:53.742Z,101787.75
2022-10-08T02:27:02.566Z,101780.56
2022-10-08T02:30:11.357Z,101794.84
2022-10-08T02:33:22.409Z,101799.34
2022-10-08T02:36:38.083Z,101774.69
2022-10-08T02:39:47.944Z,101786.25
2022-10-08T02:42:58.002Z,101781.81
2022-10-08T02:46:18.007Z,101784.00
2022-10-08T02:49:28.418Z,101761.78
2022-10-08T02:52:40.317Z,101770.53
2022-10-08T02:55:55.650Z,101765.25
2022-10-08T02:59:00.101Z,101756.44
2022-10-08T03:02:06.563Z,101759.78
2022-10-08T03:05:18.647Z,101752.53
2022-10-08T03:08:23.484Z,101717.22
2022-10-08T03:11:28.916Z,101742.75
2022-10-08T03:14:36.748Z,101653.22
2022-10-08T03:17:45.876Z,101744.56
2022-10-08T03:20:52.744Z,101740.16
2022-10-08T03:23:57.177Z,101725.88
2022-10-08T03:27:01.673Z,101719.66
2022-10-08T03:30:06.534Z,101732.81
2022-10-08T03:33:11.024Z,101694.06
2022-10-08T03:36:15.629Z,101716.88
2022-10-08T03:39:20.031Z,101723.91
2022-10-08T03:42:24.278Z,101707.59
2022-10-08T03:45:28.772Z,101699.66
2022-10-08T03:48:33.729Z,101700.41
2022-10-08T03:51:38.217Z,101689.63
2022-10-08T03:54:42.571Z,101681.22
2022-10-08T03:57:46.997Z,101677.50
2022-10-08T04:01:24.141Z,101683.41
2022-10-08T04:04:28.760Z,101661.81
2022-10-08T04:07:33.439Z,101672.66
2022-10-08T04:10:39.674Z,101671.56
2022-10-08T04:13:45.051Z,101669.44
2022-10-08T04:16:49.534Z,101640.91
2022-10-08T04:19:54.303Z,101643.38
2022-10-08T04:22:58.812Z,101649.69
2022-10-08T04:26:03.974Z,101650.06
2022-10-08T04:29:09.150Z,101639.56
2022-10-08T04:32:13.465Z,101636.47
2022-10-08T04:35:17.968Z,101649.16
2022-10-08T04:38:23.195Z,101629.66
2022-10-08T04:41:28.807Z,101624.09
2022-10-08T04:44:32.954Z,101640.66
2022-10-08T04:47:37.477Z,101627.03
2022-10-08T04:50:42.177Z,101630.78
2022-10-08T04:53:47.062Z,101623.53
2022-10-08T04:56:51.660Z,101613.28
2022-10-08T05:00:16.956Z,101607.09
2022-10-08T05:03:20.567Z,101609.75
2022-10-08T05:06:28.982Z,101610.41
2022-10-08T05:09:33.183Z,101602.41
2022-10-08T05:12:37.736Z,101609.94
2022-10-08T05:15:42.092Z,101613.59
2022-10-08T05:18:46.803Z,101609.28
2022-10-08T05:21:51.316Z,101611.59
2022-10-08T05:24:55.508Z,101603.56
2022-10-08T05:28:00.299Z,101609.63
2022-10-08T05:31:04.954Z,101601.00
2022-10-08T05:34:09.537Z,101600.09
2022-10-08T05:37:13.893Z,101604.00
2022-10-08T05:40:18.203Z,101611.41
2022-10-08T05:43:22.508Z,101600.13
2022-10-08T05:46:29.085Z,101596.97
2022-10-08T05:49:33.759Z,101615.25
2022-10-08T05:52:38.161Z,101607.25
2022-10-08T05:55:42.778Z,101622.06
2022-10-08T05:58:47.944Z,101617.63
2022-10-08T06:01:53.312Z,101619.06
2022-10-08T06:04:57.497Z,101613.69
2022-10-08T06:08:01.967Z,101618.25
2022-10-08T06:11:07.846Z,101595.56
2022-10-08T06:14:14.322Z,101605.00
2022-10-08T06:17:18.783Z,101582.09
2022-10-08T06:20:23.138Z,101611.75
2022-10-08T06:23:27.728Z,101609.72
2022-10-08T06:26:40.174Z,101616.66
2022-10-08T06:29:44.658Z,101616.81
2022-10-08T06:32:49.410Z,101617.44
2022-10-08T06:35:54.317Z,101626.38
2022-10-08T06:39:04.911Z,101619.78
2022-10-08T06:42:09.376Z,101620.84
2022-10-08T06:45:14.445Z,101629.19
2022-10-08T06:48:20.612Z,101616.22
2022-10-08T06:51:25.051Z,101627.34
2022-10-08T06:54:29.419Z,101624.50
2022-10-08T06:57:34.107Z,101495.59
2022-10-08T07:00:39.858Z,101613.56
2022-10-08T07:03:44.623Z,101617.06
2022-10-08T07:06:49.145Z,101615.59
2022-10-08T07:09:53.440Z,101619.34
2022-10-08T07:12:57.859Z,101633.69
2022-10-08T07:16:07.680Z,101638.41
2022-10-08T07:19:12.084Z,101641.09
2022-10-08T07:22:16.446Z,101635.34
2022-10-08T07:25:20.840Z,101591.69
2022-10-08T07:28:26.634Z,101651.91
2022-10-08T07:31:36.453Z,101648.47
2022-10-08T07:34:40.945Z,101647.38
2022-10-08T07:37:45.595Z,101648.56
2022-10-08T07:40:51.854Z,101652.13
2022-10-08T07:44:00.681Z,101652.53
2022-10-08T07:47:05.363Z,101646.50
2022-10-08T07:50:10.380Z,101650.16
2022-10-08T07:53:14.738Z,101652.09
2022-10-08T07:56:22.233Z,101666.34
2022-10-08T07:59:26.669Z,101652.31
2022-10-08T08:02:31.040Z,101658.50
2022-10-08T08:05:36.658Z,101663.97
2022-10-08T08:08:41.750Z,101669.63
2022-10-08T08:11:47.411Z,101669.69
2022-10-08T08:14:52.033Z,101664.50
2022-10-08T08:17:56.523Z,101677.09
2022-10-08T08:21:06.148Z,101682.63
2022-10-08T08:24:16.030Z,101678.34
2022-10-08T08:27:20.411Z,101676.69
2022-10-08T08:30:24.721Z,101675.94
2022-10-08T08:33:29.245Z,101683.06
2022-10-08T08:36:37.189Z,101623.19
2022-10-08T08:39:42.006Z,101676.19
2022-10-08T08:42:56.336Z,101683.28
2022-10-08T08:46:02.836Z,101672.75
2022-10-08T08:49:16.506Z,101690.44
2022-10-08T08:52:26.193Z,101680.72
2022-10-08T08:55:50.159Z,101689.53
2022-10-08T08:59:29.589Z,101695.75
2022-10-08T09:02:40.228Z,101679.78
2022-10-08T09:05:48.776Z,101696.56
2022-10-08T09:09:03.851Z,101693.91
2022-10-08T09:12:20.446Z,101700.06
2022-10-08T09:15:34.419Z,101715.97
2022-10-08T09:18:39.294Z,101705.25
2022-10-08T09:21:43.967Z,101706.00
2022-10-08T09:24:53.122Z,101728.06
2022-10-08T09:28:01.841Z,101720.13
2022-10-08T09:31:20.167Z,101719.44
2022-10-08T09:34:24.934Z,101723.81
2022-10-08T09:37:29.532Z,101721.84
2022-10-08T09:40:34.367Z,101710.38
2022-10-08T09:43:38.872Z,101690.84
2022-10-08T09:46:43.675Z,101716.41
2022-10-08T09:50:02.754Z,101723.53
2022-10-08T09:53:07.890Z,101731.94
2022-10-08T09:56:14.910Z,101715.31
2022-10-08T09:59:22.655Z,101719.78
2022-10-08T10:02:31.910Z,101739.84
2022-10-08T10:05:38.050Z,101736.47
2022-10-08T10:09:00.988Z,101730.13
2022-10-08T10:12:21.037Z,101722.91
2022-10-08T10:15:35.670Z,101735.38
2022-10-08T10:19:02.582Z,101731.69
2022-10-08T10:22:23.101Z,101740.72
2022-10-08T10:25:39.293Z,101732.22
2022-10-08T10:28:54.288Z,101724.63
2022-10-08T10:32:20.975Z,101712.94
2022-10-08T10:35:31.545Z,101726.59
2022-10-08T10:38:43.248Z,101729.31
2022-10-08T10:41:56.751Z,101737.16
2022-10-08T10:45:35.997Z,101729.06
2022-10-08T10:48:40.423Z,101733.03
2022-10-08T10:52:34.538Z,101741.66
2022-10-08T10:56:02.973Z,101743.63
2022-10-08T10:59:21.488Z,101715.00
2022-10-08T11:02:44.385Z,101744.00
2022-10-08T11:05:56.729Z,101726.75
2022-10-08T11:09:31.983Z,101739.13
2022-10-08T11:13:26.539Z,101749.88
2022-10-08T11:16:31.263Z,101744.09
2022-10-08T11:20:00.217Z,101728.81
2022-10-08T11:23:22.554Z,101607.38
2022-10-08T11:26:45.815Z,101711.44
2022-10-08T11:30:07.399Z,101747.63
2022-10-08T11:33:15.457Z,101743.22
2022-10-08T11:36:23.021Z,101741.91
2022-10-08T11:40:00.589Z,101732.94
2022-10-08T11:43:20.221Z,101735.78
2022-10-08T11:46:32.227Z,101740.34
2022-10-08T11:49:39.438Z,101740.66
2022-10-08T11:52:44.285Z,101731.19
2022-10-08T11:56:00.244Z,101708.69
2022-10-08T11:59:28.558Z,101723.78
2022-10-08T12:02:39.423Z,101719.25
2022-10-08T12:05:51.776Z,101726.34
2022-10-08T12:08:58.940Z,101733.94
2022-10-08T12:12:14.929Z,101718.66
2022-10-08T12:15:25.432Z,101734.78
2022-10-08T12:18:32.292Z,101737.75
2022-10-08T12:21:47.882Z,101731.47
2022-10-08T12:24:58.399Z,101666.47
2022-10-08T12:28:22.067Z,101738.69
2022-10-08T12:31:33.094Z,101738.06
2022-10-08T12:34:37.560Z,101739.00
2022-10-08T12:37:45.169Z,101741.38
2022-10-08T12:41:27.630Z,101741.50
2022-10-08T12:45:09.561Z,101748.69
2022-10-08T12:48:42.069Z,101751.09
2022-10-08T12:52:12.918Z,101683.06
2022-10-08T12:55:24.421Z,101739.38
2022-10-08T12:58:32.784Z,101748.69
2022-10-08T13:01:37.439Z,101730.66
2022-10-08T13:04:47.676Z,101748.28
2022-10-08T13:07:52.526Z,101741.25
2022-10-08T13:10:58.751Z,101732.25
2022-10-08T13:14:02.752Z,101749.09
2022-10-08T13:17:07.829Z,101728.91
2022-10-08T13:20:12.076Z,101751.09
2022-10-08T13:23:38.491Z,101729.41
2022-10-08T13:26:44.249Z,101749.19
2022-10-08T13:29:48.356Z,101752.84
2022-10-08T13:33:04.029Z,101734.66
2022-10-08T13:36:08.669Z,101741.63
2022-10-08T13:39:25.235Z,101747.84
2022-10-08T13:42:34.498Z,101764.94
2022-10-08T13:45:38.990Z,101765.38
2022-10-08T13:48:46.725Z,101759.47
2022-10-08T13:51:51.980Z,101729.53
2022-10-08T13:55:01.332Z,101748.13
2022-10-08T13:58:08.407Z,101746.84
2022-10-08T14:01:13.125Z,101715.13
2022-10-08T14:04:18.761Z,101741.66
2022-10-08T14:07:30.053Z,101762.81
2022-10-08T14:10:34.665Z,101738.94
2022-10-08T14:13:39.079Z,101741.03
2022-10-08T14:16:44.313Z,101756.13
2022-10-08T14:19:49.068Z,101749.16
2022-10-08T14:22:53.655Z,101770.19
2022-10-08T14:25:58.163Z,101756.09
2022-10-08T14:29:02.589Z,101757.63
2022-10-08T14:32:09.331Z,101765.72
2022-10-08T14:35:14.610Z,101775.19
2022-10-08T14:38:19.325Z,101747.78
2022-10-08T14:41:23.711Z,101759.53
2022-10-08T14:44:28.085Z,101766.47
2022-10-08T14:47:32.390Z,101781.25
2022-10-08T14:50:36.727Z,101768.78
2022-10-08T14:53:41.204Z,101773.38
2022-10-08T14:56:46.882Z,101776.69
2022-10-08T14:59:51.264Z,101774.41
2022-10-08T15:02:55.830Z,101751.28
2022-10-08T15:06:01.716Z,101763.38
2022-10-08T15:09:06.388Z,101760.84
2022-10-08T15:12:10.680Z,101761.28
2022-10-08T15:15:15.292Z,101762.53
2022-10-08T15:18:19.668Z,101756.72
2022-10-08T15:21:24.079Z,101727.47
2022-10-08T15:24:28.818Z,101750.66
2022-10-08T15:27:33.121Z,101761.03
2022-10-08T15:30:37.793Z,101759.66
2022-10-08T15:33:47.836Z,101762.84
2022-10-08T15:36:56.706Z,101759.53
2022-10-08T15:40:01.000Z,101753.38
2022-10-08T15:43:06.774Z,101768.59
2022-10-08T15:46:14.286Z,101759.00
2022-10-08T15:49:18.689Z,101757.75
2022-10-08T15:52:23.319Z,101770.53
2022-10-08T15:55:27.615Z,101776.41
2022-10-08T15:58:50.347Z,101767.81
2022-10-08T16:01:55.094Z,101768.81
2022-10-08T16:04:59.271Z,101767.59
2022-10-08T16:08:03.745Z,101775.34
2022-10-08T16:11:32.596Z,101779.81
2022-10-08T16:14:37.022Z,101764.66
2022-10-08T16:17:41.455Z,101771.72
2022-10-08T16:20:47.333Z,101776.78
2022-10-08T16:23:53.940Z,101767.31
2022-10-08T16:26:58.488Z,101786.03
2022-10-08T16:30:02.925Z,101775.72
2022-10-08T16:33:07.434Z,101789.38
2022-10-08T16:36:13.067Z,101774.75
2022-10-08T16:39:21.426Z,101760.50
2022-10-08T16:42:26.511Z,101779.94
2022-10-08T16:45:30.832Z,101765.34
2022-10-08T16:48:41.507Z,101769.13
2022-10-08T16:51:46.570Z,101775.72
2022-10-08T16:54:54.704Z,101766.41
2022-10-08T16:57:59.421Z,101768.31
2022-10-08T17:01:08.211Z,101762.31
2022-10-08T17:04:15.052Z,101772.97
2022-10-08T17:07:19.447Z,101766.94
2022-10-08T17:10:24.158Z,101742.34
2022-10-08T17:13:28.550Z,101765.41
2022-10-08T17:16:33.128Z,101751.38
2022-10-08T17:19:38.028Z,101758.56
2022-10-08T17:22:42.233Z,101756.91
2022-10-08T17:25:47.146Z,101761.41
2022-10-08T17:28:52.884Z,101763.31
2022-10-08T17:31:57.235Z,101752.81
2022-10-08T17:35:01.550Z,101761.47
2022-10-08T17:38:07.071Z,101751.63
2022-10-08T17:41:13.365Z,101755.16
2022-10-08T17:44:18.123Z,101726.75
2022-10-08T17:47:25.809Z,101750.91
2022-10-08T17:50:37.183Z,101737.63
2022-10-08T17:53:41.746Z,101737.66
2022-10-08T17:56:46.649Z,101747.34
2022-10-08T17:59:51.127Z,101748.41
2022-10-08T18:02:55.986Z,101735.28
2022-10-08T18:06:01.156Z,101750.28
2022-10-08T18:09:08.651Z,101710.47
2022-10-08T18:12:13.958Z,101732.81
2022-10-08T18:15:18.318Z,101734.38
2022-10-08T18:18:22.692Z,101736.28
2022-10-08T18:21:27.141Z,101735.41
2022-10-08T18:24:31.599Z,101731.78
2022-10-08T18:27:35.752Z,101730.06
2022-10-08T18:30:40.697Z,101717.75
2022-10-08T18:33:47.109Z,101725.63
2022-10-08T18:36:51.226Z,101723.19
2022-10-08T18:39:55.418Z,101736.47
2022-10-08T18:43:00.303Z,101721.53
2022-10-08T18:46:05.388Z,101725.75
2022-10-08T18:49:13.329Z,101721.41
2022-10-08T18:52:21.390Z,101733.84
2022-10-08T18:55:26.185Z,101726.81
2022-10-08T18:58:30.863Z,101740.06
2022-10-08T19:01:39.143Z,101721.50
2022-10-08T19:04:43.723Z,101710.97
2022-10-08T19:07:48.035Z,101730.34
2022-10-08T19:10:52.539Z,101710.22
2022-10-08T19:13:57.324Z,101734.78
2022-10-08T19:17:02.175Z,101733.91
2022-10-08T19:20:07.309Z,101713.69
2022-10-08T19:23:11.575Z,101726.78
2022-10-08T19:26:16.751Z,101735.50
2022-10-08T19:29:23.978Z,101743.56
2022-10-08T19:32:28.747Z,101732.19
2022-10-08T19:35:33.089Z,101733.97
2022-10-08T19:38:37.601Z,101740.13
2022-10-08T19:41:43.246Z,101747.13
2022-10-08T19:44:47.723Z,101742.66
2022-10-08T19:47:52.233Z,101735.41
2022-10-08T19:50:56.836Z,101733.59
2022-10-08T19:54:02.564Z,101748.69
2022-10-08T19:57:06.650Z,101750.19
2022-10-08T20:00:11.816Z,101731.66
2022-10-08T20:03:16.398Z,101706.94
2022-10-08T20:06:24.593Z,101752.97
2022-10-08T20:09:31.437Z,101735.13
2022-10-08T20:12:35.832Z,101736.19
2022-10-08T20:15:41.040Z,101733.25
2022-10-08T20:18:53.404Z,101748.34
2022-10-08T20:21:57.841Z,101703.19
2022-10-08T20:25:02.222Z,101733.28
2022-10-08T20:28:06.895Z,101742.94
2022-10-08T20:31:17.491Z,101751.13
2022-10-08T20:34:33.968Z,101746.63
2022-10-08T20:37:38.475Z,101743.94
2022-10-08T20:40:43.383Z,101715.88
2022-10-08T20:43:48.039Z,101747.66
2022-10-08T20:46:53.323Z,101750.28
2022-10-08T20:49:57.587Z,101745.72
2022-10-08T20:53:01.981Z,101758.00
2022-10-08T20:56:07.434Z,101757.31
2022-10-08T20:59:17.227Z,101752.06
2022-10-08T21:02:21.516Z,101752.75
2022-10-08T21:05:26.632Z,101739.00
2022-10-08T21:08:31.360Z,101750.09
2022-10-08T21:11:36.942Z,101729.84
2022-10-08T21:14:41.522Z,101742.22
2022-10-08T21:17:45.789Z,101742.00
2022-10-08T21:20:52.927Z,101736.06
2022-10-08T21:23:58.587Z,101706.00
2022-10-08T21:27:03.045Z,101736.91
2022-10-08T21:30:07.743Z,101732.44
2022-10-08T21:33:12.250Z,101734.28
2022-10-08T21:36:25.918Z,101697.31
2022-10-08T21:39:30.420Z,101724.88
2022-10-08T21:42:34.874Z,101718.63
2022-10-08T21:45:39.304Z,101719.53
2022-10-08T21:48:43.672Z,101726.78
2022-10-08T21:51:48.510Z,101739.16
2022-10-08T21:54:52.950Z,101694.03
2022-10-08T21:57:57.184Z,101724.16
2022-10-08T22:01:01.337Z,101732.22
2022-10-08T22:04:12.712Z,101724.28
2022-10-08T22:07:16.978Z,101711.00
2022-10-08T22:10:21.442Z,101718.09
2022-10-08T22:13:25.925Z,101727.72
2022-10-08T22:16:30.623Z,101719.88
2022-10-08T22:19:37.511Z,101725.06
2022-10-08T22:22:41.983Z,101728.66
2022-10-08T22:25:56.928Z,101730.38
2022-10-08T22:29:01.650Z,101732.94
2022-10-08T22:32:07.283Z,101729.50
2022-10-08T22:35:11.688Z,101720.69
2022-10-08T22:38:16.385Z,101738.44
2022-10-08T22:41:26.661Z,101737.66
2022-10-08T22:44:31.427Z,101744.88
2022-10-08T22:47:35.732Z,101748.34
2022-10-08T22:50:39.869Z,101746.56
2022-10-08T22:53:44.637Z,101738.66
2022-10-08T22:56:49.222Z,101748.44
2022-10-08T22:59:54.123Z,101738.78
2022-10-08T23:02:58.712Z,101750.25
2022-10-08T23:06:11.584Z,101760.91
2022-10-08T23:09:16.016Z,101749.38
2022-10-08T23:12:20.615Z,101761.84
2022-10-08T23:15:25.041Z,101756.53
2022-10-08T23:18:30.729Z,101762.84
2022-10-08T23:21:36.354Z,101746.00
2022-10-08T23:24:40.954Z,101744.19
2022-10-08T23:27:45.448Z,101731.88
2022-10-08T23:30:49.845Z,101747.84
2022-10-08T23:33:55.712Z,101744.31
2022-10-08T23:36:59.760Z,101760.19
2022-10-08T23:40:04.565Z,101764.59
2022-10-08T23:43:09.076Z,101769.00
2022-10-08T23:46:15.907Z,101786.69
2022-10-08T23:49:20.537Z,101775.19
2022-10-08T23:52:26.150Z,101767.22
2022-10-08T23:55:30.562Z,101773.41
2022-10-08T23:58:35.239Z,101754.84
